createdAt,value
2018-03-06T00:00:52.988Z,993.59
2018-03-06T00:01:52.964Z,993.61
2018-03-06T00:02:52.944Z,993.61
2018-03-06T00:03:52.917Z,993.55
2018-03-06T00:04:52.920Z,993.56
2018-03-06T00:05:52.873Z,993.58
2018-03-06T00:06:52.852Z,993.54
2018-03-06T00:07:52.832Z,993.56
2018-03-06T00:08:52.809Z,993.58
2018-03-06T00:09:52.783Z,993.59
2018-03-06T00:10:52.763Z,993.59
2018-03-06T00:11:52.739Z,993.59
2018-03-06T00:12:52.713Z,993.60
2018-03-06T00:13:52.693Z,993.58
2018-03-06T00:14:52.674Z,993.49
2018-03-06T00:15:52.650Z,993.54
2018-03-06T00:16:52.667Z,993.52
2018-03-06T00:17:52.607Z,993.48
2018-03-06T00:18:52.585Z,993.49
2018-03-06T00:19:52.564Z,993.46
2018-03-06T00:20:52.538Z,993.45
2018-03-06T00:21:52.515Z,993.45
2018-03-06T00:22:52.492Z,993.42
2018-03-06T00:23:52.475Z,993.43
2018-03-06T00:24:52.449Z,993.44
2018-03-06T00:25:52.424Z,993.43
2018-03-06T00:26:52.405Z,993.41
2018-03-06T00:27:52.380Z,993.39
2018-03-06T00:28:52.357Z,993.39
2018-03-06T00:29:52.340Z,993.33
2018-03-06T00:30:52.313Z,993.35
2018-03-06T00:31:52.293Z,993.35
2018-03-06T00:32:52.277Z,993.32
2018-03-06T00:33:52.248Z,993.32
2018-03-06T00:34:52.222Z,993.30
2018-03-06T00:35:52.201Z,993.28
2018-03-06T00:36:52.183Z,993.31
2018-03-06T00:37:52.159Z,993.22
2018-03-06T00:38:52.136Z,993.23
2018-03-06T00:39:52.111Z,993.21
2018-03-06T00:40:52.092Z,993.24
2018-03-06T00:41:52.069Z,993.22
2018-03-06T00:42:52.047Z,993.16
2018-03-06T00:43:52.024Z,993.22
2018-03-06T00:44:52.001Z,993.20
2018-03-06T00:45:51.976Z,993.21
2018-03-06T00:46:51.957Z,993.21
2018-03-06T00:47:51.934Z,993.21
2018-03-06T00:48:51.912Z,993.17
2018-03-06T00:49:51.887Z,993.22
2018-03-06T00:50:51.863Z,993.15
2018-03-06T00:51:51.841Z,993.17
2018-03-06T00:52:51.824Z,993.13
2018-03-06T00:53:51.797Z,993.17
2018-03-06T00:54:51.784Z,993.15
2018-03-06T00:55:51.755Z,993.12
2018-03-06T00:56:51.730Z,993.11
2018-03-06T00:57:51.722Z,993.10
2018-03-06T00:58:51.683Z,993.04
2018-03-06T00:59:51.663Z,993.07
2018-03-06T01:00:51.640Z,993.05
2018-03-06T01:01:51.617Z,993.01
2018-03-06T01:02:51.596Z,993.05
2018-03-06T01:03:51.572Z,993.03
2018-03-06T01:04:51.551Z,993.04
2018-03-06T01:05:51.532Z,992.99
2018-03-06T01:06:51.513Z,993.03
2018-03-06T01:07:51.485Z,993.02
2018-03-06T01:08:51.462Z,992.99
2018-03-06T01:09:51.438Z,992.95
2018-03-06T01:10:51.423Z,992.98
2018-03-06T01:11:51.395Z,992.93
2018-03-06T01:12:51.372Z,992.92
2018-03-06T01:13:51.349Z,992.94
2018-03-06T01:14:51.329Z,992.93
2018-03-06T01:15:51.302Z,992.96
2018-03-06T01:16:51.291Z,992.88
2018-03-06T01:17:51.261Z,992.93
2018-03-06T01:18:51.240Z,992.91
2018-03-06T01:19:51.214Z,992.94
2018-03-06T01:20:51.191Z,992.92
2018-03-06T01:21:51.169Z,992.95
2018-03-06T01:22:51.144Z,992.86
2018-03-06T01:23:51.174Z,992.93
2018-03-06T01:24:51.104Z,992.88
2018-03-06T01:25:51.185Z,992.89
2018-03-06T01:26:51.056Z,992.81
2018-03-06T01:27:51.133Z,992.90
2018-03-06T01:28:51.009Z,992.87
2018-03-06T01:29:50.989Z,992.87
2018-03-06T01:30:50.969Z,992.81
2018-03-06T01:31:51.047Z,992.80
2018-03-06T01:32:50.920Z,992.82
2018-03-06T01:33:50.903Z,992.83
2018-03-06T01:34:50.878Z,992.83
2018-03-06T01:35:50.958Z,992.79
2018-03-06T01:36:50.839Z,992.80
2018-03-06T01:37:50.961Z,992.81
2018-03-06T01:38:50.795Z,992.78
2018-03-06T01:39:50.839Z,992.73
2018-03-06T01:40:50.739Z,992.77
2018-03-06T01:41:50.730Z,992.77
2018-03-06T01:42:50.693Z,992.72
2018-03-06T01:43:50.786Z,992.80
2018-03-06T01:44:50.652Z,992.77
2018-03-06T01:45:50.644Z,992.73
2018-03-06T01:46:50.607Z,992.73
2018-03-06T01:47:50.596Z,992.72
2018-03-06T01:48:50.558Z,992.71
2018-03-06T01:49:50.551Z,992.72
2018-03-06T01:50:50.515Z,992.72
2018-03-06T01:51:50.494Z,992.70
2018-03-06T01:52:50.471Z,992.72
2018-03-06T01:53:50.456Z,992.70
2018-03-06T01:54:50.424Z,992.71
2018-03-06T01:55:50.408Z,992.70
2018-03-06T01:56:50.380Z,992.69
2018-03-06T01:57:50.357Z,992.71
2018-03-06T01:58:50.339Z,992.74
2018-03-06T01:59:50.313Z,992.73
2018-03-06T02:00:50.287Z,992.68
2018-03-06T02:01:50.267Z,992.64
2018-03-06T02:02:50.245Z,992.66
2018-03-06T02:03:50.220Z,992.65
2018-03-06T02:04:50.202Z,992.68
2018-03-06T02:05:50.178Z,992.64
2018-03-06T02:06:50.162Z,992.60
2018-03-06T02:07:50.128Z,992.61
2018-03-06T02:08:50.114Z,992.55
2018-03-06T02:09:50.087Z,992.55
2018-03-06T02:10:50.063Z,992.52
2018-03-06T02:11:50.045Z,992.50
2018-03-06T02:12:50.019Z,992.49
2018-03-06T02:13:49.995Z,992.48
2018-03-06T02:14:49.973Z,992.46
2018-03-06T02:15:49.948Z,992.45
2018-03-06T02:16:49.929Z,992.43
2018-03-06T02:17:49.914Z,992.47
2018-03-06T02:18:49.883Z,992.45
2018-03-06T02:19:49.858Z,992.48
2018-03-06T02:20:49.835Z,992.47
2018-03-06T02:21:49.813Z,992.51
2018-03-06T02:22:49.789Z,992.48
2018-03-06T02:23:49.773Z,992.46
2018-03-06T02:24:49.746Z,992.45
2018-03-06T02:25:49.726Z,992.41
2018-03-06T02:26:49.700Z,992.37
2018-03-06T02:27:49.679Z,992.38
2018-03-06T02:28:49.664Z,992.33
2018-03-06T02:29:49.633Z,992.34
2018-03-06T02:30:49.614Z,992.31
2018-03-06T02:31:49.591Z,992.30
2018-03-06T02:32:49.564Z,992.30
2018-03-06T02:33:49.543Z,992.26
2018-03-06T02:34:49.518Z,992.22
2018-03-06T02:35:49.495Z,992.19
2018-03-06T02:36:49.472Z,992.20
2018-03-06T02:37:49.454Z,992.23
2018-03-06T02:38:49.432Z,992.27
2018-03-06T02:39:49.403Z,992.22
2018-03-06T02:40:49.383Z,992.22
2018-03-06T02:41:49.361Z,992.20
2018-03-06T02:42:49.338Z,992.15
2018-03-06T02:43:49.314Z,992.11
2018-03-06T02:44:49.293Z,992.11
2018-03-06T02:45:49.273Z,992.11
2018-03-06T02:46:49.249Z,992.14
2018-03-06T02:47:49.224Z,992.13
2018-03-06T02:48:49.202Z,992.09
2018-03-06T02:49:49.180Z,992.07
2018-03-06T02:50:49.206Z,992.13
2018-03-06T02:51:49.144Z,992.06
2018-03-06T02:52:49.173Z,992.11
2018-03-06T02:53:49.100Z,992.08
2018-03-06T02:54:49.068Z,992.09
2018-03-06T02:55:49.044Z,992.12
2018-03-06T02:56:49.019Z,992.13
2018-03-06T02:57:49.004Z,992.13
2018-03-06T02:58:48.975Z,992.11
2018-03-06T02:59:48.954Z,992.07
2018-03-06T03:00:48.937Z,992.06
2018-03-06T03:01:48.961Z,992.02
2018-03-06T03:02:48.934Z,992.00
2018-03-06T03:03:48.861Z,992.05
2018-03-06T03:04:48.839Z,992.01
2018-03-06T03:05:48.821Z,992.03
2018-03-06T03:06:48.792Z,992.00
2018-03-06T03:07:48.768Z,992.02
2018-03-06T03:08:48.750Z,992.04
2018-03-06T03:09:48.723Z,992.02
2018-03-06T03:10:48.708Z,992.03
2018-03-06T03:11:48.678Z,992.06
2018-03-06T03:12:48.656Z,992.10
2018-03-06T03:13:48.632Z,992.04
2018-03-06T03:14:48.613Z,992.08
2018-03-06T03:15:48.591Z,992.11
2018-03-06T03:16:48.671Z,992.11
2018-03-06T03:17:48.548Z,992.08
2018-03-06T03:18:48.520Z,992.16
2018-03-06T03:19:48.497Z,992.07
2018-03-06T03:20:48.544Z,992.09
2018-03-06T03:21:48.456Z,992.12
2018-03-06T03:22:48.531Z,992.09
2018-03-06T03:23:48.410Z,992.11
2018-03-06T03:24:48.388Z,992.11
2018-03-06T03:25:48.362Z,992.11
2018-03-06T03:26:48.344Z,992.12
2018-03-06T03:27:48.320Z,992.14
2018-03-06T03:28:48.292Z,992.13
2018-03-06T03:29:48.270Z,992.09
2018-03-06T03:30:48.249Z,992.08
2018-03-06T03:31:48.225Z,992.07
2018-03-06T03:32:48.205Z,992.05
2018-03-06T03:33:48.180Z,992.04
2018-03-06T03:34:48.161Z,992.01
2018-03-06T03:35:48.135Z,991.97
2018-03-06T03:36:48.111Z,991.98
2018-03-06T03:37:48.095Z,991.93
2018-03-06T03:38:48.125Z,991.95
2018-03-06T03:39:48.042Z,991.90
2018-03-06T03:40:48.021Z,991.90
2018-03-06T03:41:47.999Z,991.91
2018-03-06T03:42:47.979Z,991.84
2018-03-06T03:43:47.954Z,991.82
2018-03-06T03:44:47.934Z,991.85
2018-03-06T03:45:47.906Z,991.85
2018-03-06T03:46:47.884Z,991.85
2018-03-06T03:47:47.863Z,991.83
2018-03-06T03:48:47.838Z,991.84
2018-03-06T03:49:47.819Z,991.82
2018-03-06T03:50:47.794Z,991.86
2018-03-06T03:51:47.774Z,991.84
2018-03-06T03:52:47.751Z,991.81
2018-03-06T03:53:47.727Z,991.82
2018-03-06T03:54:47.702Z,991.81
2018-03-06T03:55:47.684Z,991.82
2018-03-06T03:56:47.653Z,991.83
2018-03-06T03:57:47.645Z,991.85
2018-03-06T03:58:47.617Z,991.85
2018-03-06T03:59:47.591Z,991.86
2018-03-06T04:00:47.573Z,991.85
2018-03-06T04:01:47.544Z,991.87
2018-03-06T04:02:47.517Z,991.84
2018-03-06T04:03:47.498Z,991.78
2018-03-06T04:04:47.473Z,991.83
2018-03-06T04:05:47.450Z,991.79
2018-03-06T04:06:47.426Z,991.85
2018-03-06T04:07:47.404Z,991.83
2018-03-06T04:08:47.385Z,991.77
2018-03-06T04:09:47.365Z,991.76
2018-03-06T04:10:47.345Z,991.75
2018-03-06T04:11:47.314Z,991.75
2018-03-06T04:12:47.296Z,991.76
2018-03-06T04:13:47.269Z,991.76
2018-03-06T04:14:47.243Z,991.67
2018-03-06T04:15:47.220Z,991.73
2018-03-06T04:16:47.202Z,991.78
2018-03-06T04:17:47.185Z,991.74
2018-03-06T04:18:47.154Z,991.78
2018-03-06T04:19:47.134Z,991.75
2018-03-06T04:20:47.109Z,991.74
2018-03-06T04:21:47.085Z,991.73
2018-03-06T04:22:47.061Z,991.72
2018-03-06T04:23:47.054Z,991.69
2018-03-06T04:24:47.016Z,991.75
2018-03-06T04:25:46.993Z,991.65
2018-03-06T04:26:46.970Z,991.70
2018-03-06T04:27:46.951Z,991.67
2018-03-06T04:28:46.924Z,991.72
2018-03-06T04:29:46.902Z,991.74
2018-03-06T04:30:46.881Z,991.73
2018-03-06T04:31:46.855Z,991.68
2018-03-06T04:32:46.834Z,991.66
2018-03-06T04:33:46.814Z,991.68
2018-03-06T04:34:46.794Z,991.66
2018-03-06T04:35:46.765Z,991.64
2018-03-06T04:36:46.745Z,991.67
2018-03-06T04:37:46.724Z,991.66
2018-03-06T04:38:46.695Z,991.64
2018-03-06T04:39:46.677Z,991.63
2018-03-06T04:40:46.651Z,991.63
2018-03-06T04:41:46.633Z,991.56
2018-03-06T04:42:46.605Z,991.59
2018-03-06T04:43:46.583Z,991.56
2018-03-06T04:44:46.562Z,991.55
2018-03-06T04:45:46.542Z,991.55
2018-03-06T04:46:46.516Z,991.55
2018-03-06T04:47:46.538Z,991.51
2018-03-06T04:48:46.469Z,991.55
2018-03-06T04:49:46.447Z,991.52
2018-03-06T04:50:46.419Z,991.54
2018-03-06T04:51:46.417Z,991.53
2018-03-06T04:52:46.376Z,991.58
2018-03-06T04:53:46.452Z,991.58
2018-03-06T04:54:46.331Z,991.56
2018-03-06T04:55:46.306Z,991.57
2018-03-06T04:56:46.299Z,991.55
2018-03-06T04:57:46.367Z,991.57
2018-03-06T04:58:46.238Z,991.52
2018-03-06T04:59:46.221Z,991.55
2018-03-06T05:00:46.193Z,991.55
2018-03-06T05:01:46.174Z,991.56
2018-03-06T05:02:46.151Z,991.58
2018-03-06T05:03:46.124Z,991.59
2018-03-06T05:04:46.100Z,991.54
2018-03-06T05:05:46.080Z,991.57
2018-03-06T05:06:46.055Z,991.55
2018-03-06T05:07:46.031Z,991.57
2018-03-06T05:08:46.018Z,991.54
2018-03-06T05:09:45.992Z,991.51
2018-03-06T05:10:45.968Z,991.52
2018-03-06T05:11:45.942Z,991.52
2018-03-06T05:12:45.921Z,991.45
2018-03-06T05:13:45.895Z,991.43
2018-03-06T05:14:45.873Z,991.45
2018-03-06T05:15:45.851Z,991.44
2018-03-06T05:16:45.825Z,991.42
2018-03-06T05:17:45.804Z,991.44
2018-03-06T05:18:45.784Z,991.47
2018-03-06T05:19:45.757Z,991.42
2018-03-06T05:20:45.740Z,991.45
2018-03-06T05:21:45.715Z,991.45
2018-03-06T05:22:45.691Z,991.48
2018-03-06T05:23:45.670Z,991.43
2018-03-06T05:24:45.643Z,991.40
2018-03-06T05:25:45.624Z,991.42
2018-03-06T05:26:45.597Z,991.41
2018-03-06T05:27:45.574Z,991.43
2018-03-06T05:28:45.557Z,991.45
2018-03-06T05:29:45.533Z,991.40
2018-03-06T05:30:45.508Z,991.39
2018-03-06T05:31:45.485Z,991.41
2018-03-06T05:32:45.460Z,991.46
2018-03-06T05:33:45.437Z,991.36
2018-03-06T05:34:45.415Z,991.43
2018-03-06T05:35:45.399Z,991.40
2018-03-06T05:36:45.370Z,991.42
2018-03-06T05:37:45.355Z,991.40
2018-03-06T05:38:45.322Z,991.40
2018-03-06T05:39:45.299Z,991.33
2018-03-06T05:40:45.277Z,991.41
2018-03-06T05:41:45.255Z,991.35
2018-03-06T05:42:45.231Z,991.41
2018-03-06T05:43:45.206Z,991.40
2018-03-06T05:44:45.183Z,991.39
2018-03-06T05:45:45.161Z,991.39
2018-03-06T05:46:45.135Z,991.36
2018-03-06T05:47:45.114Z,991.38
2018-03-06T05:48:45.094Z,991.37
2018-03-06T05:49:45.073Z,991.36
2018-03-06T05:50:45.045Z,991.36
2018-03-06T05:51:45.025Z,991.34
2018-03-06T05:52:45.002Z,991.39
2018-03-06T05:53:44.978Z,991.38
2018-03-06T05:54:44.957Z,991.43
2018-03-06T05:55:44.931Z,991.39
2018-03-06T05:56:44.909Z,991.41
2018-03-06T05:57:44.887Z,991.40
2018-03-06T05:58:44.870Z,991.40
2018-03-06T05:59:44.840Z,991.38
2018-03-06T06:00:44.818Z,991.38
2018-03-06T06:01:44.793Z,991.37
2018-03-06T06:02:44.770Z,991.39
2018-03-06T06:03:44.750Z,991.42
2018-03-06T06:04:44.727Z,991.41
2018-03-06T06:05:44.707Z,991.41
2018-03-06T06:06:44.684Z,991.41
2018-03-06T06:07:44.664Z,991.46
2018-03-06T06:08:44.634Z,991.44
2018-03-06T06:09:44.608Z,991.46
2018-03-06T06:10:44.598Z,991.46
2018-03-06T06:11:44.564Z,991.45
2018-03-06T06:12:44.541Z,991.50
2018-03-06T06:13:44.520Z,991.53
2018-03-06T06:14:44.493Z,991.52
2018-03-06T06:15:44.474Z,991.49
2018-03-06T06:16:44.456Z,991.55
2018-03-06T06:17:44.431Z,991.50
2018-03-06T06:18:44.403Z,991.54
2018-03-06T06:19:44.385Z,991.54
2018-03-06T06:20:44.358Z,991.54
2018-03-06T06:21:44.337Z,991.54
2018-03-06T06:22:44.310Z,991.54
2018-03-06T06:23:44.294Z,991.53
2018-03-06T06:24:44.269Z,991.54
2018-03-06T06:25:44.243Z,991.50
2018-03-06T06:26:44.221Z,991.53
2018-03-06T06:27:44.200Z,991.50
2018-03-06T06:28:44.177Z,991.55
2018-03-06T06:29:44.165Z,991.55
2018-03-06T06:30:44.130Z,991.54
2018-03-06T06:31:44.114Z,991.54
2018-03-06T06:32:44.083Z,991.54
2018-03-06T06:33:44.065Z,991.53
2018-03-06T06:34:44.045Z,991.53
2018-03-06T06:35:44.016Z,991.51
2018-03-06T06:36:43.994Z,991.57
2018-03-06T06:37:43.971Z,991.58
2018-03-06T06:38:43.946Z,991.56
2018-03-06T06:39:43.921Z,991.54
2018-03-06T06:40:43.906Z,991.54
2018-03-06T06:41:43.882Z,991.54
2018-03-06T06:42:43.887Z,991.56
2018-03-06T06:43:43.832Z,991.54
2018-03-06T06:44:43.812Z,991.55
2018-03-06T06:45:43.788Z,991.54
2018-03-06T06:46:43.766Z,991.50
2018-03-06T06:47:43.742Z,991.52
2018-03-06T06:48:43.722Z,991.57
2018-03-06T06:49:43.697Z,991.50
2018-03-06T06:50:43.678Z,991.52
2018-03-06T06:51:43.654Z,991.52
2018-03-06T06:52:43.632Z,991.49
2018-03-06T06:53:43.608Z,991.49
2018-03-06T06:54:43.584Z,991.51
2018-03-06T06:55:43.564Z,991.56
2018-03-06T06:56:43.542Z,991.56
2018-03-06T06:57:43.517Z,991.55
2018-03-06T06:58:43.498Z,991.52
2018-03-06T06:59:43.470Z,991.55
2018-03-06T07:00:43.452Z,991.50
2018-03-06T07:01:43.430Z,991.52
2018-03-06T07:02:43.410Z,991.54
2018-03-06T07:03:43.384Z,991.50
2018-03-06T07:04:43.365Z,991.51
2018-03-06T07:05:43.340Z,991.51
2018-03-06T07:06:43.320Z,991.53
2018-03-06T07:07:43.293Z,991.54
2018-03-06T07:08:43.273Z,991.54
2018-03-06T07:09:43.251Z,991.49
2018-03-06T07:10:43.228Z,991.49
2018-03-06T07:11:43.312Z,991.53
2018-03-06T07:12:43.183Z,991.56
2018-03-06T07:13:43.162Z,991.57
2018-03-06T07:14:43.138Z,991.59
2018-03-06T07:15:43.118Z,991.56
2018-03-06T07:16:43.100Z,991.60
2018-03-06T07:17:43.075Z,991.60
2018-03-06T07:18:43.052Z,991.60
2018-03-06T07:19:43.027Z,991.58
2018-03-06T07:20:43.006Z,991.55
2018-03-06T07:21:42.983Z,991.54
2018-03-06T07:22:42.961Z,991.54
2018-03-06T07:23:42.942Z,991.55
2018-03-06T07:24:42.917Z,991.54
2018-03-06T07:25:42.904Z,991.57
2018-03-06T07:26:42.874Z,991.58
2018-03-06T07:27:42.857Z,991.54
2018-03-06T07:28:42.834Z,991.58
2018-03-06T07:29:42.867Z,991.58
2018-03-06T07:30:42.783Z,991.56
2018-03-06T07:31:42.763Z,991.62
2018-03-06T07:32:42.742Z,991.61
2018-03-06T07:33:42.723Z,991.59
2018-03-06T07:34:42.699Z,991.60
2018-03-06T07:35:42.678Z,991.58
2018-03-06T07:36:42.654Z,991.59
2018-03-06T07:37:42.632Z,991.58
2018-03-06T07:38:42.614Z,991.59
2018-03-06T07:39:42.588Z,991.61
2018-03-06T07:40:42.568Z,991.60
2018-03-06T07:41:42.550Z,991.62
2018-03-06T07:42:42.528Z,991.64
2018-03-06T07:43:42.503Z,991.64
2018-03-06T07:44:42.484Z,991.63
2018-03-06T07:45:42.463Z,991.63
2018-03-06T07:46:42.438Z,991.64
2018-03-06T07:47:42.417Z,991.69
2018-03-06T07:48:42.401Z,991.65
2018-03-06T07:49:42.377Z,991.59
2018-03-06T07:50:42.353Z,991.58
2018-03-06T07:51:42.330Z,991.60
2018-03-06T07:52:42.314Z,991.56
2018-03-06T07:53:42.288Z,991.58
2018-03-06T07:54:42.267Z,991.59
2018-03-06T07:55:42.249Z,991.56
2018-03-06T07:56:42.225Z,991.61
2018-03-06T07:57:42.203Z,991.61
2018-03-06T07:58:42.183Z,991.59
2018-03-06T07:59:42.162Z,991.63
2018-03-06T08:00:42.140Z,991.64
2018-03-06T08:01:42.129Z,991.62
2018-03-06T08:02:42.096Z,991.63
2018-03-06T08:03:42.078Z,991.65
2018-03-06T08:04:42.060Z,991.60
2018-03-06T08:05:42.037Z,991.57
2018-03-06T08:06:42.014Z,991.60
2018-03-06T08:07:41.996Z,991.63
2018-03-06T08:08:41.974Z,991.57
2018-03-06T08:09:41.951Z,991.59
2018-03-06T08:10:41.932Z,991.60
2018-03-06T08:11:41.947Z,991.55
2018-03-06T08:12:41.887Z,991.51
2018-03-06T08:13:41.870Z,991.51
2018-03-06T08:14:41.846Z,991.52
2018-03-06T08:15:41.832Z,991.50
2018-03-06T08:16:41.808Z,991.51
2018-03-06T08:17:41.789Z,991.53
2018-03-06T08:18:41.764Z,991.53
2018-03-06T08:19:41.745Z,991.53
2018-03-06T08:20:41.727Z,991.52
2018-03-06T08:21:41.704Z,991.50
2018-03-06T08:22:41.684Z,991.55
2018-03-06T08:23:41.665Z,991.50
2018-03-06T08:24:41.655Z,991.54
2018-03-06T08:25:41.626Z,991.55
2018-03-06T08:26:41.604Z,991.51
2018-03-06T08:27:41.588Z,991.51
2018-03-06T08:28:41.563Z,991.52
2018-03-06T08:29:41.552Z,991.53
2018-03-06T08:30:41.522Z,991.51
2018-03-06T08:31:41.504Z,991.54
2018-03-06T08:32:41.483Z,991.51
2018-03-06T08:33:41.463Z,991.53
2018-03-06T08:34:41.443Z,991.51
2018-03-06T08:35:41.426Z,991.54
2018-03-06T08:36:41.411Z,991.58
2018-03-06T08:37:41.418Z,991.56
2018-03-06T08:38:41.371Z,991.61
2018-03-06T08:39:41.353Z,991.64
2018-03-06T08:40:41.331Z,991.61
2018-03-06T08:41:41.313Z,991.62
2018-03-06T08:42:41.292Z,991.65
2018-03-06T08:43:41.420Z,991.60
2018-03-06T08:44:41.254Z,991.60
2018-03-06T08:45:41.235Z,991.66
2018-03-06T08:46:41.214Z,991.66
2018-03-06T08:47:41.198Z,991.66
2018-03-06T08:48:41.181Z,991.57
2018-03-06T08:49:41.159Z,991.61
2018-03-06T08:50:41.142Z,991.60
2018-03-06T08:51:41.124Z,991.65
2018-03-06T08:52:41.108Z,991.65
2018-03-06T08:53:41.091Z,991.67
2018-03-06T08:54:41.072Z,991.68
2018-03-06T08:55:41.048Z,991.72
2018-03-06T08:56:41.033Z,991.65
2018-03-06T08:57:41.120Z,991.71
2018-03-06T08:58:40.996Z,991.67
2018-03-06T08:59:40.984Z,991.65
2018-03-06T09:00:40.960Z,991.65
2018-03-06T09:01:40.945Z,991.66
2018-03-06T09:02:40.931Z,991.71
2018-03-06T09:03:40.981Z,991.74
2018-03-06T09:04:40.891Z,991.70
2018-03-06T09:05:40.882Z,991.76
2018-03-06T09:06:40.860Z,991.77
2018-03-06T09:07:40.893Z,991.77
2018-03-06T09:08:40.822Z,991.78
2018-03-06T09:09:40.809Z,991.77
2018-03-06T09:10:40.788Z,991.78
2018-03-06T09:11:40.771Z,991.77
2018-03-06T09:12:40.755Z,991.70
2018-03-06T09:13:40.737Z,991.68
2018-03-06T09:14:40.723Z,991.69
2018-03-06T09:15:40.703Z,991.70
2018-03-06T09:16:40.688Z,991.63
2018-03-06T09:17:40.675Z,991.63
2018-03-06T09:18:40.654Z,991.65
2018-03-06T09:19:40.691Z,991.64
2018-03-06T09:20:40.621Z,991.64
2018-03-06T09:21:40.605Z,991.62
2018-03-06T09:22:40.590Z,991.65
2018-03-06T09:23:40.576Z,991.65
2018-03-06T09:24:40.557Z,991.66
2018-03-06T09:25:40.543Z,991.66
2018-03-06T09:26:40.523Z,991.66
2018-03-06T09:27:40.509Z,991.67
2018-03-06T09:28:40.496Z,991.63
2018-03-06T09:29:40.497Z,991.60
2018-03-06T09:30:40.463Z,991.59
2018-03-06T09:31:40.444Z,991.60
2018-03-06T09:32:40.431Z,991.60
2018-03-06T09:33:40.414Z,991.59
2018-03-06T09:34:40.400Z,991.57
2018-03-06T09:35:40.388Z,991.53
2018-03-06T09:36:40.366Z,991.58
2018-03-06T09:37:40.351Z,991.55
2018-03-06T09:38:40.337Z,991.54
2018-03-06T09:39:40.320Z,991.54
2018-03-06T09:40:40.313Z,991.56
2018-03-06T09:41:40.294Z,991.57
2018-03-06T09:42:40.282Z,991.52
2018-03-06T09:43:40.265Z,991.53
2018-03-06T09:44:40.249Z,991.53
2018-03-06T09:45:40.240Z,991.55
2018-03-06T09:46:40.221Z,991.53
2018-03-06T09:47:40.225Z,991.56
2018-03-06T09:48:40.186Z,991.53
2018-03-06T09:49:40.170Z,991.58
2018-03-06T09:50:40.154Z,991.55
2018-03-06T09:51:40.145Z,991.56
2018-03-06T09:52:40.138Z,991.62
2018-03-06T09:53:40.112Z,991.61
2018-03-06T09:54:40.100Z,991.59
2018-03-06T09:55:40.086Z,991.60
2018-03-06T09:56:40.070Z,991.60
2018-03-06T09:57:40.054Z,991.61
2018-03-06T09:58:40.043Z,991.55
2018-03-06T09:59:40.027Z,991.51
2018-03-06T10:00:40.014Z,991.57
2018-03-06T10:01:40.004Z,991.52
2018-03-06T10:02:39.989Z,991.51
2018-03-06T10:03:39.974Z,991.46
2018-03-06T10:04:39.966Z,991.49
2018-03-06T10:05:39.946Z,991.45
2018-03-06T10:06:39.939Z,991.45
2018-03-06T10:07:39.921Z,991.50
2018-03-06T10:08:39.910Z,991.47
2018-03-06T10:09:39.900Z,991.47
2018-03-06T10:10:39.886Z,991.44
2018-03-06T10:11:39.871Z,991.42
2018-03-06T10:12:39.854Z,991.39
2018-03-06T10:13:39.839Z,991.42
2018-03-06T10:14:39.832Z,991.35
2018-03-06T10:15:39.814Z,991.40
2018-03-06T10:16:39.801Z,991.36
2018-03-06T10:17:39.792Z,991.37
2018-03-06T10:18:39.775Z,991.37
2018-03-06T10:19:39.760Z,991.32
2018-03-06T10:20:39.752Z,991.32
2018-03-06T10:21:39.738Z,991.33
2018-03-06T10:22:39.723Z,991.28
2018-03-06T10:23:39.714Z,991.30
2018-03-06T10:24:39.697Z,991.32
2018-03-06T10:25:39.691Z,991.26
2018-03-06T10:26:39.677Z,991.27
2018-03-06T10:27:39.659Z,991.23
2018-03-06T10:28:39.644Z,991.17
2018-03-06T10:29:39.633Z,991.18
2018-03-06T10:30:39.619Z,991.18
2018-03-06T10:31:39.605Z,991.20
2018-03-06T10:32:39.592Z,991.17
2018-03-06T10:33:39.581Z,991.18
2018-03-06T10:34:39.565Z,991.13
2018-03-06T10:35:39.554Z,991.09
2018-03-06T10:36:39.547Z,991.11
2018-03-06T10:37:39.533Z,991.12
2018-03-06T10:38:39.521Z,991.07
2018-03-06T10:39:39.499Z,991.05
2018-03-06T10:40:39.485Z,991.14
2018-03-06T10:41:39.474Z,991.15
2018-03-06T10:42:39.462Z,991.16
2018-03-06T10:43:39.446Z,991.18
2018-03-06T10:44:39.435Z,991.19
2018-03-06T10:45:39.430Z,991.17
2018-03-06T10:46:39.416Z,991.19
2018-03-06T10:47:39.398Z,991.14
2018-03-06T10:48:39.384Z,991.17
2018-03-06T10:49:39.384Z,991.14
2018-03-06T10:50:39.372Z,991.14
2018-03-06T10:51:39.346Z,991.12
2018-03-06T10:52:39.334Z,991.09
2018-03-06T10:53:39.326Z,991.05
2018-03-06T10:54:39.310Z,991.02
2018-03-06T10:55:39.295Z,991.05
2018-03-06T10:56:39.285Z,991.01
2018-03-06T10:57:39.277Z,991.06
2018-03-06T10:58:39.254Z,990.99
2018-03-06T10:59:39.242Z,991.01
2018-03-06T11:00:39.232Z,990.98
2018-03-06T11:01:39.224Z,990.98
2018-03-06T11:02:39.207Z,991.01
2018-03-06T11:03:39.195Z,991.00
2018-03-06T11:04:39.185Z,991.05
2018-03-06T11:05:39.179Z,991.02
2018-03-06T11:06:39.164Z,991.02
2018-03-06T11:07:39.148Z,991.03
2018-03-06T11:08:39.142Z,990.99
2018-03-06T11:09:39.123Z,990.97
2018-03-06T11:10:39.114Z,990.92
2018-03-06T11:11:39.103Z,990.95
2018-03-06T11:12:39.091Z,990.98
2018-03-06T11:13:39.088Z,990.93
2018-03-06T11:14:39.114Z,990.91
2018-03-06T11:15:39.054Z,990.88
2018-03-06T11:16:39.045Z,990.90
2018-03-06T11:17:39.034Z,990.89
2018-03-06T11:18:39.020Z,990.84
2018-03-06T11:19:39.009Z,990.85
2018-03-06T11:20:38.996Z,990.82
2018-03-06T11:21:38.987Z,990.77
2018-03-06T11:22:38.981Z,990.77
2018-03-06T11:23:38.969Z,990.80
2018-03-06T11:24:39.002Z,990.75
2018-03-06T11:25:38.947Z,990.77
2018-03-06T11:26:38.926Z,990.75
2018-03-06T11:27:38.922Z,990.75
2018-03-06T11:28:38.912Z,990.73
2018-03-06T11:29:38.896Z,990.72
2018-03-06T11:30:38.884Z,990.72
2018-03-06T11:31:38.872Z,990.63
2018-03-06T11:32:38.866Z,990.69
2018-03-06T11:33:38.849Z,990.64
2018-03-06T11:34:38.838Z,990.63
2018-03-06T11:35:38.826Z,990.65
2018-03-06T11:36:38.814Z,990.61
2018-03-06T11:37:38.804Z,990.61
2018-03-06T11:38:38.791Z,990.59
2018-03-06T11:39:38.782Z,990.56
2018-03-06T11:40:38.771Z,990.53
2018-03-06T11:41:38.762Z,990.53
2018-03-06T11:42:38.747Z,990.53
2018-03-06T11:43:38.739Z,990.52
2018-03-06T11:44:38.726Z,990.51
2018-03-06T11:45:38.715Z,990.51
2018-03-06T11:46:38.699Z,990.50
2018-03-06T11:47:38.691Z,990.49
2018-03-06T11:48:38.675Z,990.46
2018-03-06T11:49:38.664Z,990.46
2018-03-06T11:50:38.652Z,990.47
2018-03-06T11:51:38.643Z,990.43
2018-03-06T11:52:38.634Z,990.43
2018-03-06T11:53:38.624Z,990.46
2018-03-06T11:54:38.658Z,990.47
2018-03-06T11:55:38.678Z,990.47
2018-03-06T11:56:38.585Z,990.42
2018-03-06T11:57:38.622Z,990.44
2018-03-06T11:58:38.564Z,990.43
2018-03-06T11:59:38.553Z,990.42
2018-03-06T12:00:38.538Z,990.39
2018-03-06T12:01:38.657Z,990.39
2018-03-06T12:02:38.514Z,990.33
2018-03-06T12:03:38.503Z,990.34
2018-03-06T12:04:38.496Z,990.33
2018-03-06T12:05:38.495Z,990.30
2018-03-06T12:06:38.471Z,990.31
2018-03-06T12:07:38.568Z,990.25
2018-03-06T12:08:38.448Z,990.29
2018-03-06T12:09:38.433Z,990.27
2018-03-06T12:10:38.427Z,990.26
2018-03-06T12:11:38.410Z,990.22
2018-03-06T12:12:38.397Z,990.24
2018-03-06T12:13:38.444Z,990.23
2018-03-06T12:14:38.378Z,990.22
2018-03-06T12:15:38.362Z,990.20
2018-03-06T12:16:38.355Z,990.17
2018-03-06T12:17:38.338Z,990.15
2018-03-06T12:18:38.341Z,990.16
2018-03-06T12:19:38.317Z,990.13
2018-03-06T12:20:38.301Z,990.15
2018-03-06T12:21:38.295Z,990.18
2018-03-06T12:22:38.279Z,990.10
2018-03-06T12:23:38.265Z,990.12
2018-03-06T12:24:38.251Z,990.08
2018-03-06T12:25:38.251Z,990.10
2018-03-06T12:26:38.228Z,990.04
2018-03-06T12:27:38.216Z,990.06
2018-03-06T12:28:38.208Z,990.00